Time;durP1;ratioP1;P1;durP2;ratioP2;P2;SDS_P1;SDS_P2;PMS_P1;PMS_P2;Temp;Humidity;BMP_temperature;BMP_pressure;BME280_temperature;BME280_humidity;BME280_pressure;Samples;Min_cycle;Max_cycle;Signal;HPM_P1;HPM_P2
2022/12/22 03:27:14;;;;;;;1.23;0.60;;;25.70;52.40;;;;;;4035492;29;20141;-51
2022/12/22 03:29:36;;;;;;;1.30;0.65;;;25.70;52.40;;;;;;4049556;29;20052;-46
2022/12/22 03:31:59;;;;;;;1.90;0.60;;;25.70;52.20;;;;;;4052273;29;20044;-51
2022/12/22 03:34:22;;;;;;;3.38;0.60;;;25.70;52.30;;;;;;4049430;29;20464;-47
2022/12/22 03:36:44;;;;;;;3.17;0.98;;;25.70;51.80;;;;;;4049436;29;20036;-45
2022/12/22 03:39:06;;;;;;;5.25;0.88;;;25.80;52.70;;;;;;4050283;29;20048;-49
2022/12/22 03:46:50;;;;;;;3.40;0.82;;;25.80;52.70;;;;;;4036235;29;20098;-50
2022/12/22 03:49:13;;;;;;;9.38;0.80;;;25.80;52.70;;;;;;4042598;29;20076;-46
2022/12/22 03:51:37;;;;;;;2.88;0.70;;;25.80;52.60;;;;;;4045555;29;20071;-46
2022/12/22 03:54:00;;;;;;;2.38;0.70;;;25.90;52.70;;;;;;4050845;29;20036;-42
2022/12/22 03:56:22;;;;;;;2.17;0.50;;;25.90;52.60;;;;;;4052857;29;20043;-50
2022/12/22 03:58:45;;;;;;;0.73;0.60;;;25.90;52.50;;;;;;4054018;29;20062;-46
2022/12/22 04:01:08;;;;;;;1.90;0.50;;;25.90;52.50;;;;;;4054457;29;20071;-50
2022/12/22 04:03:30;;;;;;;2.60;0.70;;;25.90;53.20;;;;;;4052808;29;20043;-46
2022/12/22 04:05:52;;;;;;;3.20;0.70;;;25.90;52.60;;;;;;4050567;29;20485;-43
2022/12/22 04:08:15;;;;;;;1.00;0.57;;;25.90;52.70;;;;;;4053716;29;20616;-43
2022/12/22 04:13:18;;;;;;;2.70;0.47;;;26.00;52.90;;;;;;4053822;29;20044;-49
2022/12/22 04:15:40;;;;;;;0.85;0.52;;;26.00;53.00;;;;;;4054091;29;20404;-45
2022/12/22 04:18:02;;;;;;;1.27;0.45;;;26.00;52.90;;;;;;4053789;29;20036;-51
2022/12/22 04:20:26;;;;;;;1.10;0.38;;;26.00;52.90;;;;;;4049182;29;20126;-48
2022/12/22 04:22:48;;;;;;;1.70;0.40;;;26.00;52.90;;;;;;4053326;29;20131;-45
2022/12/22 04:25:12;;;;;;;0.90;0.60;;;26.00;52.90;;;;;;4048942;29;20036;-47
2022/12/22 04:27:34;;;;;;;0.73;0.30;;;26.00;53.00;;;;;;4049038;29;20493;-43
2022/12/22 04:29:57;;;;;;;0.93;0.45;;;26.00;53.00;;;;;;4054492;29;20551;-42
2022/12/22 04:32:19;;;;;;;1.40;0.52;;;26.00;53.10;;;;;;4053148;29;20049;-47
2022/12/22 04:34:42;;;;;;;0.73;0.32;;;26.00;53.30;;;;;;4045670;29;20043;-46
2022/12/22 04:37:04;;;;;;;0.95;0.30;;;26.00;53.40;;;;;;4040447;29;20505;-46
2022/12/22 04:39:26;;;;;;;2.75;0.40;;;26.00;53.50;;;;;;4032344;29;20047;-49
2022/12/22 04:41:49;;;;;;;0.45;0.40;;;26.00;53.40;;;;;;4038814;29;20032;-46
2022/12/22 04:44:11;;;;;;;1.17;0.30;;;26.00;53.50;;;;;;4041144;29;20273;-48
2022/12/22 04:46:34;;;;;;;0.85;0.40;;;26.00;53.50;;;;;;4041155;29;20408;-47
2022/12/22 04:48:56;;;;;;;1.13;0.65;;;26.00;53.50;;;;;;4048543;29;20288;-44
2022/12/22 04:51:19;;;;;;;1.17;0.35;;;26.00;53.50;;;;;;4036832;29;20028;-42
2022/12/22 04:53:41;;;;;;;1.00;0.40;;;26.00;53.60;;;;;;4045721;29;20044;-45
2022/12/22 04:56:06;;;;;;;4.75;0.70;;;26.00;53.40;;;;;;4041237;29;20614;-46
2022/12/22 04:58:29;;;;;;;1.27;0.45;;;26.10;53.50;;;;;;4041666;29;20626;-46
2022/12/22 05:00:51;;;;;;;2.05;0.43;;;26.00;53.30;;;;;;4041575;29;20099;-45
2022/12/22 05:03:14;;;;;;;0.57;0.30;;;26.10;53.20;;;;;;4041726;29;20052;-43
2022/12/22 05:05:37;;;;;;;0.63;0.30;;;26.10;53.10;;;;;;4041405;29;20037;-49
2022/12/22 05:07:59;;;;;;;1.52;0.35;;;26.10;53.40;;;;;;4039518;29;20154;-46
2022/12/22 05:10:22;;;;;;;0.93;0.45;;;26.10;53.30;;;;;;4042220;29;20033;-53
2022/12/22 05:12:53;;;;;;;1.17;0.40;;;26.10;53.00;;;;;;4039587;29;20040;-46
2022/12/22 05:15:16;;;;;;;1.55;0.47;;;26.10;52.90;;;;;;4039670;29;20043;-49
2022/12/22 05:17:38;;;;;;;1.58;0.60;;;26.10;52.90;;;;;;4039399;29;20131;-51
2022/12/22 05:20:00;;;;;;;1.35;0.30;;;26.10;53.00;;;;;;4039112;29;20464;-51
2022/12/22 05:22:23;;;;;;;0.77;0.45;;;26.10;52.90;;;;;;4037205;29;20065;-47
2022/12/22 05:24:45;;;;;;;1.25;0.70;;;26.00;52.80;;;;;;4039603;29;20044;-47
2022/12/22 05:27:09;;;;;;;0.90;0.45;;;26.00;52.80;;;;;;4038342;29;20533;-47
2022/12/22 05:29:32;;;;;;;11.95;1.25;;;26.00;52.80;;;;;;4038260;29;20519;-44
2022/12/22 05:31:54;;;;;;;1.23;0.73;;;26.00;52.90;;;;;;4041319;29;20285;-49
2022/12/22 05:34:17;;;;;;;2.03;0.57;;;26.00;52.90;;;;;;4041331;29;20151;-45
2022/12/22 05:36:39;;;;;;;1.27;0.47;;;26.00;52.90;;;;;;4039280;29;20048;-44
2022/12/22 05:39:01;;;;;;;1.33;0.52;;;26.10;53.00;;;;;;4044472;29;20479;-48
2022/12/22 05:41:24;;;;;;;1.73;0.73;;;26.00;53.00;;;;;;4044780;29;20111;-42
2022/12/22 05:43:46;;;;;;;2.95;0.80;;;26.00;52.60;;;;;;4042011;29;20213;-45
2022/12/22 05:46:10;;;;;;;4.13;0.88;;;26.00;52.10;;;;;;4035981;29;20306;-43
2022/12/22 05:48:33;;;;;;;1.08;0.70;;;25.90;52.40;;;;;;4033785;29;20143;-46
2022/12/22 05:50:55;;;;;;;1.75;0.70;;;25.90;52.50;;;;;;4035771;29;20139;-41
2022/12/22 05:53:18;;;;;;;0.95;0.43;;;25.90;52.70;;;;;;4034954;29;20373;-43
2022/12/22 05:55:40;;;;;;;2.72;0.47;;;25.90;52.90;;;;;;4037587;29;20115;-45
2022/12/22 05:58:03;;;;;;;3.95;0.60;;;25.90;52.90;;;;;;4037043;29;20044;-43
2022/12/22 06:00:25;;;;;;;2.90;0.63;;;25.90;52.80;;;;;;4043922;29;20083;-41
2022/12/22 06:02:48;;;;;;;2.85;1.15;;;25.90;52.50;;;;;;4053219;29;20420;-43
2022/12/22 06:05:11;;;;;;;5.47;1.75;;;25.90;52.10;;;;;;4054819;29;20099;-41
2022/12/22 06:07:34;;;;;;;3.28;1.60;;;25.80;52.10;;;;;;4048341;29;20152;-46
2022/12/22 06:09:56;;;;;;;2.63;1.27;;;25.80;52.20;;;;;;4045331;29;20559;-44
2022/12/22 06:12:19;;;;;;;3.47;1.83;;;25.70;52.30;;;;;;4051413;29;20051;-40
2022/12/22 06:14:45;;;;;;;2.67;1.60;;;25.70;52.40;;;;;;4044018;29;20115;-48
2022/12/22 06:17:09;;;;;;;2.60;1.27;;;25.70;52.70;;;;;;4042194;29;20043;-42
2022/12/22 06:19:31;;;;;;;3.20;0.95;;;25.70;52.90;;;;;;4046432;29;20773;-50
2022/12/22 06:21:54;;;;;;;4.63;1.67;;;25.60;53.00;;;;;;4055070;29;20374;-42
2022/12/22 06:24:16;;;;;;;4.38;1.33;;;25.60;53.30;;;;;;4060115;29;20036;-49
2022/12/22 06:26:39;;;;;;;4.32;1.40;;;25.60;53.40;;;;;;4061512;29;20070;-47
2022/12/22 06:29:01;;;;;;;2.17;1.23;;;25.50;53.50;;;;;;4058035;29;20113;-48
2022/12/22 06:31:24;;;;;;;4.70;1.55;;;25.50;53.60;;;;;;4039141;29;20063;-46
2022/12/22 06:33:47;;;;;;;3.20;1.15;;;25.50;53.90;;;;;;4040262;29;20032;-47
2022/12/22 06:36:09;;;;;;;3.42;1.25;;;25.50;54.10;;;;;;4040860;29;20044;-50
2022/12/22 06:38:32;;;;;;;3.30;0.90;;;25.50;54.20;;;;;;4041374;29;20217;-48
2022/12/22 06:40:55;;;;;;;3.47;0.80;;;25.50;54.30;;;;;;4043315;29;20028;-42
2022/12/22 06:43:17;;;;;;;5.30;1.17;;;25.50;54.60;;;;;;4040547;29;20690;-47
2022/12/22 06:45:41;;;;;;;4.53;1.17;;;25.50;54.80;;;;;;4036892;29;20402;-46
2022/12/22 06:48:05;;;;;;;2.65;0.90;;;25.50;54.80;;;;;;4039113;29;20052;-48
2022/12/22 06:50:27;;;;;;;10.70;1.13;;;25.50;54.80;;;;;;4040578;29;20040;-47
2022/12/22 06:52:50;;;;;;;2.50;0.80;;;25.50;54.90;;;;;;4039885;29;20773;-48
2022/12/22 06:55:12;;;;;;;0.90;0.50;;;25.60;54.90;;;;;;4041966;29;20043;-44
2022/12/22 06:57:35;;;;;;;0.90;0.60;;;25.60;55.00;;;;;;4043442;29;20084;-43
2022/12/22 06:59:57;;;;;;;3.50;0.80;;;25.60;55.00;;;;;;4032141;29;20119;-47
2022/12/22 07:02:20;;;;;;;1.90;0.57;;;25.60;55.00;;;;;;4041810;29;20044;-44
2022/12/22 07:04:44;;;;;;;3.40;0.75;;;25.60;55.80;;;;;;4045528;29;20407;-45
2022/12/22 07:07:06;;;;;;;2.42;0.43;;;25.60;55.20;;;;;;4046349;29;20555;-39
2022/12/22 07:09:29;;;;;;;2.28;0.90;;;25.50;55.30;;;;;;4048372;29;20059;-45
2022/12/22 07:11:51;;;;;;;2.67;1.00;;;25.60;54.90;;;;;;4046437;29;20111;-45
2022/12/22 07:14:13;;;;;;;2.03;0.80;;;25.50;54.30;;;;;;4046489;29;20044;-43
2022/12/22 07:16:36;;;;;;;2.67;0.85;;;25.50;54.30;;;;;;4041170;29;20102;-44
2022/12/22 07:18:58;;;;;;;2.53;0.85;;;25.50;54.30;;;;;;4041558;29;20040;-42
2022/12/22 07:21:21;;;;;;;2.72;0.95;;;25.50;54.30;;;;;;4043853;29;20036;-49
2022/12/22 07:23:43;;;;;;;2.40;0.98;;;25.50;54.40;;;;;;4042234;29;20402;-48
2022/12/22 07:26:07;;;;;;;2.40;0.90;;;25.40;54.40;;;;;;4045222;29;20047;-44
2022/12/22 07:28:31;;;;;;;;;;;25.40;54.40;;;;;;4048542;29;20056;-45
2022/12/22 07:30:54;;;;;;;1.73;0.80;;;25.40;54.40;;;;;;4035138;29;20302;-42
2022/12/22 07:33:17;;;;;;;2.47;1.00;;;25.40;54.50;;;;;;4049337;29;20532;-47
2022/12/22 07:35:39;;;;;;;1.50;0.95;;;25.40;54.50;;;;;;4049026;29;20058;-46
2022/12/22 07:38:02;;;;;;;1.42;0.93;;;25.30;54.50;;;;;;4038753;29;20126;-45
2022/12/22 07:40:24;;;;;;;2.63;1.08;;;25.30;54.50;;;;;;4039347;29;20075;-43
2022/12/22 07:42:47;;;;;;;2.88;0.90;;;25.30;54.70;;;;;;4042461;29;20043;-45
2022/12/22 07:45:16;;;;;;;1.33;0.73;;;25.30;54.70;;;;;;4043117;29;20519;-46
2022/12/22 07:47:39;;;;;;;1.35;0.88;;;25.30;54.80;;;;;;4045575;29;20094;-43
2022/12/22 07:52:43;;;;;;;2.47;0.98;;;25.30;55.00;;;;;;4044279;29;20931;-42
2022/12/22 07:55:06;;;;;;;3.38;0.90;;;25.20;55.00;;;;;;4044019;29;20079;-41
2022/12/22 07:57:28;;;;;;;2.22;0.95;;;25.20;55.10;;;;;;4042914;29;20070;-49
2022/12/22 07:59:51;;;;;;;2.28;1.38;;;25.20;55.20;;;;;;4042342;29;20050;-41
2022/12/22 08:02:14;;;;;;;2.25;1.23;;;25.20;55.30;;;;;;4047102;29;20584;-49
2022/12/22 08:04:36;;;;;;;2.20;0.80;;;25.10;55.20;;;;;;4048830;29;20096;-45
2022/12/22 08:06:59;;;;;;;4.22;1.25;;;25.10;55.30;;;;;;4048004;29;20036;-41
2022/12/22 08:09:21;;;;;;;2.42;0.80;;;25.10;55.40;;;;;;4042709;29;20464;-43
2022/12/22 08:11:44;;;;;;;2.78;0.93;;;25.10;55.40;;;;;;4042851;29;20041;-44
2022/12/22 08:14:06;;;;;;;1.30;0.88;;;25.10;55.50;;;;;;4045834;29;20071;-46
2022/12/22 08:16:29;;;;;;;2.20;1.10;;;25.10;55.50;;;;;;4047015;29;20048;-45
2022/12/22 08:18:51;;;;;;;1.15;0.68;;;25.10;55.60;;;;;;4047891;29;20059;-43
2022/12/22 08:21:14;;;;;;;1.67;0.77;;;25.10;55.60;;;;;;4048192;29;20043;-45
2022/12/22 08:23:37;;;;;;;2.60;0.95;;;25.00;55.70;;;;;;4049482;29;20083;-44
2022/12/22 08:26:34;;;;;;;2.17;1.00;;;25.00;55.80;;;;;;4043844;29;20533;-43
2022/12/22 08:29:02;;;;;;;4.40;1.27;;;25.00;55.80;;;;;;4047696;29;20055;-46
2022/12/22 08:31:27;;;;;;;2.22;1.08;;;25.00;56.00;;;;;;4048616;29;20040;-46
2022/12/22 08:33:49;;;;;;;3.53;1.20;;;25.00;56.00;;;;;;4047291;29;20075;-45
2022/12/22 08:36:13;;;;;;;2.42;1.10;;;25.00;56.00;;;;;;4048139;29;20040;-46
2022/12/22 08:38:38;;;;;;;1.17;0.88;;;25.00;56.10;;;;;;4046023;29;20088;-46
2022/12/22 08:41:00;;;;;;;1.90;1.00;;;25.00;56.30;;;;;;4046497;29;20032;-45
2022/12/22 08:43:24;;;;;;;1.65;0.80;;;25.00;56.30;;;;;;4048306;29;20523;-45
2022/12/22 08:45:46;;;;;;;2.00;1.08;;;25.00;56.30;;;;;;4048978;29;20103;-43
2022/12/22 08:48:12;;;;;;;2.08;0.90;;;25.00;56.40;;;;;;4048982;29;20090;-46
2022/12/22 08:50:34;;;;;;;3.03;0.88;;;24.90;56.40;;;;;;4048265;29;20036;-48
2022/12/22 08:53:05;;;;;;;1.90;1.27;;;24.90;56.40;;;;;;4047462;29;20428;-43
2022/12/22 08:55:27;;;;;;;1.55;1.13;;;24.90;56.40;;;;;;4048943;29;20487;-42
2022/12/22 08:57:50;;;;;;;2.55;1.42;;;24.90;56.50;;;;;;4047765;29;20439;-44
2022/12/22 09:00:13;;;;;;;2.15;1.02;;;24.90;56.50;;;;;;4047759;29;20059;-42
2022/12/22 09:02:37;;;;;;;2.20;1.00;;;24.90;56.60;;;;;;4043629;29;20044;-44
2022/12/22 09:04:59;;;;;;;;;;;24.80;56.60;;;;;;4034019;29;20048;-42
2022/12/22 09:07:21;;;;;;;2.10;1.20;;;24.80;56.60;;;;;;4038370;29;20002;-45
2022/12/22 09:09:44;;;;;;;2.00;1.15;;;24.80;56.70;;;;;;4045211;29;20492;-42
2022/12/22 09:12:06;;;;;;;2.65;1.50;;;24.80;56.60;;;;;;4049399;29;20043;-41
2022/12/22 09:14:29;;;;;;;2.95;1.48;;;24.80;56.70;;;;;;4045455;29;20070;-43
2022/12/22 09:16:52;;;;;;;2.13;1.30;;;24.80;56.80;;;;;;4034274;29;20041;-43
2022/12/22 09:19:14;;;;;;;2.55;1.20;;;24.80;56.80;;;;;;4051170;29;20486;-41
2022/12/22 09:21:37;;;;;;;2.72;1.45;;;24.80;56.80;;;;;;4052417;29;20045;-43
2022/12/22 09:23:59;;;;;;;2.60;1.38;;;24.80;56.90;;;;;;4050012;29;20052;-43
2022/12/22 09:26:24;;;;;;;2.53;1.27;;;24.80;56.90;;;;;;4046544;29;20037;-48
2022/12/22 09:28:47;;;;;;;2.28;1.33;;;24.80;56.90;;;;;;4038303;29;20150;-42
2022/12/22 09:31:10;;;;;;;2.97;1.60;;;24.70;56.90;;;;;;4049879;29;20241;-44
2022/12/22 09:33:37;;;;;;;3.60;1.40;;;24.80;57.00;;;;;;4050352;29;20051;-45
2022/12/22 09:36:00;;;;;;;2.35;1.40;;;24.70;57.00;;;;;;4047816;29;20037;-44
2022/12/22 09:38:25;;;;;;;1.98;1.13;;;24.70;57.00;;;;;;4045232;29;20028;-47
2022/12/22 09:40:48;;;;;;;2.80;1.42;;;24.70;57.00;;;;;;4046884;29;20043;-43
2022/12/22 09:43:16;;;;;;;3.47;1.45;;;24.70;57.10;;;;;;4049632;29;20041;-43
2022/12/22 09:45:38;;;;;;;1.95;1.10;;;24.70;57.10;;;;;;4046059;29;20848;-45
2022/12/22 09:48:02;;;;;;;2.70;1.50;;;24.70;57.10;;;;;;4044611;29;20200;-45
2022/12/22 09:50:26;;;;;;;4.03;1.60;;;24.70;57.00;;;;;;4047751;29;20409;-47
2022/12/22 09:53:03;;;;;;;2.22;1.48;;;24.70;57.10;;;;;;4052566;29;20700;-47
2022/12/22 09:55:26;;;;;;;2.72;1.38;;;24.70;57.10;;;;;;4048152;29;20048;-46
2022/12/22 09:57:48;;;;;;;2.53;1.27;;;24.70;57.10;;;;;;4050878;29;20518;-45
2022/12/22 10:00:15;;;;;;;2.05;1.13;;;24.60;57.10;;;;;;4053776;29;20094;-44
2022/12/22 10:02:50;;;;;;;1.90;1.20;;;24.60;57.00;;;;;;4051237;29;20059;-44
2022/12/22 10:05:50;;;;;;;1.98;1.15;;;24.60;57.10;;;;;;4052761;29;20559;-46
2022/12/22 10:08:26;;;;;;;2.17;1.17;;;24.60;57.10;;;;;;4027099;29;20067;-43
2022/12/22 10:10:54;;;;;;;2.03;1.33;;;24.60;57.20;;;;;;4051150;29;20035;-43
2022/12/22 10:13:19;;;;;;;2.50;1.35;;;24.60;57.20;;;;;;4045610;29;20080;-45
2022/12/22 10:15:42;;;;;;;1.65;1.17;;;24.60;57.20;;;;;;4033296;29;20052;-45
2022/12/22 10:18:14;;;;;;;1.90;1.13;;;24.60;57.20;;;;;;4037007;29;20425;-45
2022/12/22 10:20:38;;;;;;;3.25;1.08;;;24.60;57.40;;;;;;4049919;29;20054;-47
2022/12/22 10:23:22;;;;;;;3.28;1.30;;;24.50;57.60;;;;;;4051392;29;20075;-47
2022/12/22 10:25:56;;;;;;;7.73;1.60;;;24.50;57.80;;;;;;4046479;29;20044;-50
2022/12/22 10:28:23;;;;;;;1.30;0.95;;;24.60;58.50;;;;;;4042931;29;20131;-47
2022/12/22 10:30:46;;;;;;;2.83;1.10;;;24.60;58.80;;;;;;4046621;29;21350;-48
2022/12/22 10:33:17;;;;;;;4.50;1.15;;;24.60;59.00;;;;;;4046369;29;20044;-44
2022/12/22 10:35:52;;;;;;;1.52;0.93;;;24.60;59.20;;;;;;4044988;29;20082;-45
2022/12/22 10:38:18;;;;;;;3.88;1.33;;;24.60;59.20;;;;;;4045315;29;20111;-43
2022/12/22 10:40:46;;;;;;;2.17;1.02;;;24.60;59.30;;;;;;4043837;29;20494;-44
2022/12/22 10:43:09;;;;;;;3.35;1.30;;;24.70;59.50;;;;;;4044253;29;20044;-46
2022/12/22 10:45:31;;;;;;;2.58;1.20;;;24.70;59.40;;;;;;4042469;29;20058;-49
2022/12/22 10:47:56;;;;;;;2.00;0.75;;;24.70;59.60;;;;;;4042488;29;20406;-46
2022/12/22 10:50:20;;;;;;;3.80;0.95;;;24.60;59.40;;;;;;4040611;29;20127;-42
2022/12/22 10:52:54;;;;;;;1.73;0.90;;;24.70;59.50;;;;;;4040550;29;20047;-44
2022/12/22 10:55:24;;;;;;;2.08;0.77;;;24.70;59.70;;;;;;4044373;29;20070;-51
2022/12/22 10:57:47;;;;;;;3.97;1.08;;;24.70;59.60;;;;;;4043493;29;20127;-53
2022/12/22 11:00:23;;;;;;;8.15;1.42;;;24.70;59.70;;;;;;4042345;29;20032;-52
2022/12/22 11:02:51;;;;;;;3.50;1.00;;;24.70;59.70;;;;;;4041855;29;20043;-49
2022/12/22 11:05:14;;;;;;;18.40;3.15;;;24.80;59.80;;;;;;4030964;29;20055;-46
2022/12/22 11:07:48;;;;;;;14.70;2.83;;;24.80;59.90;;;;;;4044699;29;20048;-53
2022/12/22 11:10:29;;;;;;;5.30;1.58;;;24.80;59.80;;;;;;4048730;29;20539;-53
2022/12/22 11:13:04;;;;;;;9.88;1.63;;;24.80;59.80;;;;;;4045610;29;20168;-48
2022/12/22 11:15:36;;;;;;;3.92;1.33;;;24.80;59.60;;;;;;4046819;29;20075;-50
2022/12/22 11:18:38;;;;;;;9.13;1.88;;;24.80;59.60;;;;;;4049353;29;20387;-47
2022/12/22 11:21:47;;;;;;;5.93;1.33;;;24.80;59.60;;;;;;4022765;29;20159;-53
2022/12/22 11:24:30;;;;;;;3.85;1.10;;;24.80;59.40;;;;;;4044369;29;20047;-56
2022/12/22 11:26:59;;;;;;;4.53;1.45;;;24.80;59.50;;;;;;4040954;29;20381;-53
2022/12/22 11:30:06;;;;;;;3.78;0.95;;;24.80;59.40;;;;;;4039104;29;20056;-50
2022/12/22 11:32:52;;;;;;;1.60;0.85;;;24.80;59.40;;;;;;4044186;29;20068;-51
2022/12/22 11:35:26;;;;;;;3.65;0.77;;;24.80;59.30;;;;;;4040866;29;20044;-49
2022/12/22 11:38:08;;;;;;;4.63;0.88;;;24.80;59.30;;;;;;4044399;29;20075;-54
2022/12/22 11:40:39;;;;;;;5.03;1.00;;;24.80;59.50;;;;;;4043780;29;20457;-56
2022/12/22 11:43:34;;;;;;;0.77;0.60;;;24.80;59.50;;;;;;4044010;29;20086;-46
2022/12/22 11:46:29;;;;;;;6.40;1.00;;;24.80;59.40;;;;;;4042424;29;20519;-51
2022/12/22 11:49:16;;;;;;;3.92;0.90;;;24.80;59.30;;;;;;4044843;29;20051;-46
2022/12/22 11:52:35;;;;;;;9.18;1.13;;;24.80;59.50;;;;;;4045751;29;20130;-54
2022/12/22 11:55:25;;;;;;;3.28;1.10;;;24.80;59.60;;;;;;4004586;29;20049;-56
2022/12/22 11:58:17;;;;;;;1.92;0.98;;;24.80;59.60;;;;;;4004131;29;20109;-48
2022/12/22 12:01:21;;;;;;;1.73;0.68;;;24.80;59.60;;;;;;4042910;29;20071;-49
2022/12/22 12:04:06;;;;;;;2.90;0.70;;;24.80;59.40;;;;;;4041296;29;20044;-55
2022/12/22 12:06:40;;;;;;;2.35;0.80;;;24.80;59.50;;;;;;4032227;29;20076;-48
2022/12/22 12:09:34;;;;;;;1.48;0.63;;;24.80;59.70;;;;;;4045349;29;20081;-53
2022/12/22 12:12:31;;;;;;;4.97;1.10;;;24.80;59.70;;;;;;4015546;29;20202;-53
2022/12/22 12:15:10;;;;;;;1.80;0.98;;;24.80;59.60;;;;;;4032824;29;20654;-43
2022/12/22 12:17:35;;;;;;;17.13;2.00;;;24.80;59.40;;;;;;4046339;29;20096;-46
2022/12/22 12:20:16;;;;;;;3.75;0.95;;;24.80;59.40;;;;;;4044549;29;20112;-46
2022/12/22 12:22:41;;;;;;;5.97;0.95;;;24.80;59.20;;;;;;4047529;29;20048;-45
2022/12/22 12:25:38;;;;;;;4.32;1.05;;;24.80;59.10;;;;;;4045039;29;20580;-44
2022/12/22 12:28:15;;;;;;;3.78;0.80;;;24.80;59.20;;;;;;4044961;29;20123;-52
2022/12/22 12:30:54;;;;;;;5.72;1.15;;;24.80;59.40;;;;;;4043725;29;20044;-43
2022/12/22 12:33:25;;;;;;;7.97;1.58;;;24.80;59.50;;;;;;4047158;29;20201;-47
2022/12/22 12:35:58;;;;;;;5.47;1.15;;;24.80;59.60;;;;;;4046376;29;20054;-47
2022/12/22 12:38:33;;;;;;;6.07;1.15;;;24.80;59.60;;;;;;4046690;29;20558;-49
2022/12/22 12:41:06;;;;;;;2.83;0.85;;;24.80;59.60;;;;;;4046947;29;20309;-51
2022/12/22 12:43:29;;;;;;;3.90;0.90;;;24.80;59.60;;;;;;4046384;29;20075;-46
2022/12/22 12:45:51;;;;;;;4.95;1.00;;;24.80;59.60;;;;;;4045440;29;20722;-49
2022/12/22 12:48:23;;;;;;;2.40;0.82;;;24.80;59.50;;;;;;4031815;29;20128;-51
2022/12/22 12:50:52;;;;;;;4.57;1.08;;;24.80;59.50;;;;;;4030816;29;20127;-48
2022/12/22 12:53:17;;;;;;;1.55;0.70;;;24.80;59.50;;;;;;4030960;29;20192;-47
2022/12/22 12:55:39;;;;;;;1.15;0.63;;;24.80;59.50;;;;;;4032229;29;20036;-44
2022/12/22 12:58:03;;;;;;;2.83;1.13;;;24.80;59.60;;;;;;4032076;29;20040;-45
2022/12/22 13:00:34;;;;;;;2.60;0.80;;;24.80;59.80;;;;;;4027035;29;20049;-48
2022/12/22 13:02:58;;;;;;;4.07;1.38;;;24.80;59.90;;;;;;4029183;29;20036;-50
2022/12/22 13:05:49;;;;;;;4.82;0.80;;;24.80;59.90;;;;;;4029344;29;20045;-50
2022/12/22 13:08:38;;;;;;;4.32;1.13;;;24.80;59.90;;;;;;4032655;29;20036;-47
2022/12/22 13:11:00;;;;;;;2.53;0.80;;;24.80;59.90;;;;;;4025225;29;20331;-49
2022/12/22 13:13:25;;;;;;;3.85;0.75;;;24.80;59.90;;;;;;4037988;29;20049;-46
2022/12/22 13:15:49;;;;;;;2.80;0.95;;;24.80;59.90;;;;;;4032468;29;20381;-44
2022/12/22 13:18:24;;;;;;;4.25;0.80;;;24.80;59.90;;;;;;4032124;29;20040;-46
2022/12/22 13:20:58;;;;;;;2.63;0.50;;;24.80;59.90;;;;;;4030949;29;20076;-46
2022/12/22 13:23:20;;;;;;;2.55;0.77;;;24.80;59.80;;;;;;4018760;29;20433;-47
2022/12/22 13:25:54;;;;;;;1.70;0.47;;;24.80;59.90;;;;;;4030626;29;20390;-48
2022/12/22 13:28:19;;;;;;;1.02;0.60;;;24.80;59.90;;;;;;4030286;29;20147;-47
2022/12/22 13:30:49;;;;;;;2.80;1.00;;;24.80;59.90;;;;;;4032335;29;20104;-46
2022/12/22 13:33:14;;;;;;;0.30;0.30;;;24.80;59.90;;;;;;4029681;29;20124;-48
2022/12/22 13:35:40;;;;;;;1.05;0.50;;;24.80;59.90;;;;;;4034268;29;20410;-50
2022/12/22 13:38:03;;;;;;;2.17;0.52;;;24.80;60.00;;;;;;4029008;29;20092;-46
2022/12/22 13:40:41;;;;;;;1.75;0.45;;;24.80;60.10;;;;;;4029898;29;20476;-51
2022/12/22 13:43:15;;;;;;;3.15;0.70;;;24.80;60.10;;;;;;4031120;29;20563;-46
2022/12/22 13:45:53;;;;;;;5.25;0.63;;;24.80;60.20;;;;;;4027887;29;20136;-45
2022/12/22 13:48:19;;;;;;;0.82;0.50;;;24.80;60.20;;;;;;4048143;29;20112;-48
2022/12/22 13:50:59;;;;;;;0.43;0.40;;;24.80;60.30;;;;;;4042980;29;20538;-46
2022/12/22 13:53:42;;;;;;;1.30;0.47;;;24.80;60.30;;;;;;4042309;29;20089;-45
2022/12/22 13:56:17;;;;;;;1.10;0.50;;;24.80;60.30;;;;;;4044809;29;20052;-53
2022/12/22 13:58:45;;;;;;;14.90;0.98;;;24.80;60.40;;;;;;4048980;29;20036;-48
2022/12/22 14:01:10;;;;;;;1.77;0.40;;;24.80;60.50;;;;;;4045916;29;20151;-47
2022/12/22 14:03:33;;;;;;;1.42;0.40;;;24.80;60.50;;;;;;4045535;29;20048;-51
2022/12/22 14:05:55;;;;;;;1.40;0.45;;;24.80;60.50;;;;;;4046180;29;20039;-46
2022/12/22 14:08:23;;;;;;;9.07;1.13;;;24.80;60.40;;;;;;4046234;29;20468;-45
2022/12/22 14:10:46;;;;;;;3.47;0.70;;;24.80;60.10;;;;;;4045501;29;20415;-51
2022/12/22 14:13:16;;;;;;;2.70;0.55;;;24.80;60.10;;;;;;4050730;29;20456;-50
2022/12/22 14:15:38;;;;;;;1.88;0.80;;;24.70;60.20;;;;;;4043519;29;20701;-48
2022/12/22 14:18:00;;;;;;;2.65;0.60;;;24.70;60.30;;;;;;4048150;29;20079;-52
2022/12/22 14:20:39;;;;;;;2.40;0.82;;;24.70;60.30;;;;;;4046697;29;20070;-45
2022/12/22 14:23:23;;;;;;;1.35;0.47;;;24.60;60.10;;;;;;4049347;29;20547;-54
2022/12/22 14:25:47;;;;;;;1.15;0.50;;;24.60;60.20;;;;;;4046909;29;20488;-52
2022/12/22 14:28:22;;;;;;;3.45;0.40;;;24.60;60.30;;;;;;4047800;29;20032;-49
2022/12/22 14:30:45;;;;;;;;;;;24.60;60.40;;;;;;4050146;29;20048;-55
2022/12/22 14:33:27;;;;;;;3.88;0.63;;;24.60;60.30;;;;;;4049737;29;19915;-54
2022/12/22 14:35:50;;;;;;;5.80;0.93;;;24.60;60.30;;;;;;4049765;29;20621;-50
2022/12/22 14:38:18;;;;;;;2.33;0.70;;;24.50;60.20;;;;;;4051758;29;20124;-48
2022/12/22 14:40:42;;;;;;;2.38;0.52;;;24.50;60.10;;;;;;4048135;29;20086;-54
2022/12/22 14:43:27;;;;;;;3.58;0.60;;;24.50;60.00;;;;;;4050769;29;20491;-50
2022/12/22 14:45:51;;;;;;;2.03;0.80;;;24.50;60.00;;;;;;4047506;29;20036;-49
2022/12/22 14:48:18;;;;;;;;;;;24.50;60.00;;;;;;4051176;29;20424;-52
2022/12/22 14:50:48;;;;;;;1.45;0.73;;;24.50;59.90;;;;;;4047340;29;19922;-51
2022/12/22 14:53:13;;;;;;;0.68;0.57;;;24.40;59.90;;;;;;4047967;29;20584;-45
2022/12/22 14:55:48;;;;;;;1.38;0.50;;;24.40;59.90;;;;;;4047154;29;20046;-47
2022/12/22 14:58:14;;;;;;;1.23;0.70;;;24.40;60.00;;;;;;4051420;29;20043;-47
2022/12/22 15:00:39;;;;;;;1.20;0.47;;;24.40;60.00;;;;;;4052794;29;20433;-54
2022/12/22 15:03:23;;;;;;;0.47;0.38;;;24.40;60.00;;;;;;4049769;29;20044;-49
2022/12/22 15:05:45;;;;;;;1.08;0.47;;;24.40;60.10;;;;;;4048197;29;20079;-49
2022/12/22 15:08:37;;;;;;;0.43;0.43;;;24.40;60.10;;;;;;4046889;29;20037;-48
2022/12/22 15:11:00;;;;;;;0.70;0.50;;;24.30;59.90;;;;;;4048447;29;20116;-48
2022/12/22 15:13:23;;;;;;;1.88;0.40;;;24.30;60.00;;;;;;4052173;29;20542;-53
2022/12/22 15:15:46;;;;;;;0.30;0.30;;;24.30;60.10;;;;;;4047850;29;20094;-48
2022/12/22 15:18:14;;;;;;;0.82;0.43;;;24.30;60.10;;;;;;4050287;29;20056;-51
2022/12/22 15:20:36;;;;;;;1.20;0.80;;;24.30;60.10;;;;;;4052323;29;20527;-50
2022/12/22 15:22:59;;;;;;;0.43;0.30;;;24.20;60.10;;;;;;4037683;29;20436;-50
2022/12/22 15:25:23;;;;;;;0.32;0.32;;;24.20;60.10;;;;;;4049082;29;20049;-52
2022/12/22 15:27:46;;;;;;;0.93;0.50;;;24.20;60.20;;;;;;4046739;29;20471;-54
2022/12/22 15:30:09;;;;;;;0.60;0.60;;;24.20;60.10;;;;;;4051563;29;20484;-45
2022/12/22 15:32:32;;;;;;;4.22;0.98;;;24.20;60.40;;;;;;4050416;29;20048;-48
2022/12/22 15:34:54;;;;;;;2.70;0.80;;;24.20;60.60;;;;;;4046084;29;20115;-53
2022/12/22 15:37:17;;;;;;;1.73;0.65;;;24.20;61.30;;;;;;4052134;29;20040;-48
2022/12/22 15:39:39;;;;;;;1.65;0.43;;;24.20;60.70;;;;;;4048386;29;20044;-48
2022/12/22 15:42:02;;;;;;;0.82;0.73;;;24.20;60.20;;;;;;4035946;29;20033;-49
2022/12/22 15:44:24;;;;;;;4.18;0.60;;;24.20;60.70;;;;;;4042557;29;20127;-50
2022/12/22 15:46:55;;;;;;;1.00;0.45;;;24.20;60.70;;;;;;4045998;29;20056;-46
2022/12/22 15:49:24;;;;;;;0.82;0.60;;;24.20;60.70;;;;;;4040828;29;20123;-46
2022/12/22 15:51:56;;;;;;;6.95;0.73;;;24.20;60.70;;;;;;4051230;29;20048;-46
2022/12/22 15:54:19;;;;;;;4.68;0.85;;;24.20;60.70;;;;;;4053041;29;20473;-46
2022/12/22 15:56:42;;;;;;;0.68;0.50;;;24.20;60.70;;;;;;4048778;29;20426;-45
2022/12/22 15:59:05;;;;;;;0.35;0.35;;;24.20;60.50;;;;;;4051247;29;20123;-52
2022/12/22 16:01:27;;;;;;;1.40;0.30;;;24.20;60.60;;;;;;4046721;29;20453;-52
2022/12/22 16:03:49;;;;;;;0.88;0.50;;;24.10;60.50;;;;;;4049889;29;20044;-48
2022/12/22 16:06:14;;;;;;;1.70;0.52;;;24.10;60.50;;;;;;4052943;29;20044;-47
2022/12/22 16:08:38;;;;;;;2.03;0.60;;;24.10;60.50;;;;;;4051551;29;20091;-55
2022/12/22 16:11:01;;;;;;;1.52;0.70;;;24.10;60.60;;;;;;4053428;29;20039;-51
2022/12/22 16:13:26;;;;;;;2.10;0.70;;;24.10;60.80;;;;;;4053393;29;20071;-49
2022/12/22 16:15:49;;;;;;;0.50;0.50;;;24.10;60.50;;;;;;4054851;29;20040;-47
2022/12/22 16:18:12;;;;;;;0.88;0.40;;;24.10;60.70;;;;;;4051056;29;20067;-49
2022/12/22 16:20:42;;;;;;;0.60;0.50;;;24.10;60.70;;;;;;4053576;29;20044;-50
2022/12/22 16:23:07;;;;;;;1.27;0.50;;;24.10;60.50;;;;;;4053287;29;20040;-50
2022/12/22 16:25:36;;;;;;;1.23;0.65;;;24.10;60.80;;;;;;4050101;29;20032;-45